createdAt,value
2023-01-17T00:00:05.464Z,0.90
2023-01-17T00:02:36.048Z,1.90
2023-01-17T00:05:20.075Z,1.53
2023-01-17T00:08:02.653Z,1.80
2023-01-17T00:10:33.153Z,2.13
2023-01-17T00:13:05.267Z,1.40
2023-01-17T00:15:40.000Z,1.40
2023-01-17T00:18:10.116Z,1.20
2023-01-17T00:20:52.613Z,1.20
2023-01-17T00:23:38.996Z,0.60
2023-01-17T00:26:14.792Z,0.90
2023-01-17T00:28:44.466Z,1.60
2023-01-17T00:31:16.574Z,1.23
2023-01-17T00:33:44.007Z,1.00
2023-01-17T00:36:12.040Z,1.10
2023-01-17T00:38:40.171Z,1.50
2023-01-17T00:41:10.894Z,1.10
2023-01-17T00:43:53.887Z,1.20
2023-01-17T00:46:39.401Z,1.20
2023-01-17T00:49:22.817Z,1.60
2023-01-17T00:52:05.278Z,1.73
2023-01-17T00:54:47.870Z,1.97
2023-01-17T00:57:30.504Z,1.63
2023-01-17T01:00:13.238Z,1.47
2023-01-17T01:02:58.464Z,1.63
2023-01-17T01:05:41.041Z,1.47
2023-01-17T01:08:37.162Z,1.30
2023-01-17T01:11:24.934Z,1.50
2023-01-17T01:14:07.542Z,1.57
2023-01-17T01:16:49.994Z,1.50
2023-01-17T01:19:35.168Z,1.53
2023-01-17T01:22:18.105Z,1.33
2023-01-17T01:25:00.566Z,1.80
2023-01-17T01:27:43.079Z,1.70
2023-01-17T01:30:27.015Z,3.30
2023-01-17T01:33:09.542Z,1.90
2023-01-17T01:35:43.120Z,1.30
2023-01-17T01:38:13.261Z,2.33
2023-01-17T01:40:48.804Z,2.00
2023-01-17T01:43:22.654Z,1.20
2023-01-17T01:46:00.056Z,1.70
2023-01-17T01:48:43.368Z,5.17
2023-01-17T01:51:27.075Z,1.87
2023-01-17T01:54:04.094Z,1.70
2023-01-17T01:56:36.189Z,1.33
2023-01-17T01:59:11.652Z,1.97
2023-01-17T02:01:41.758Z,1.77
2023-01-17T02:04:13.135Z,2.03
2023-01-17T02:06:54.330Z,2.80
2023-01-17T02:09:24.767Z,2.00
2023-01-17T02:11:54.784Z,2.73
2023-01-17T02:14:25.739Z,1.73
2023-01-17T02:17:15.916Z,1.70
2023-01-17T02:20:18.874Z,1.70
2023-01-17T02:23:28.415Z,1.77
2023-01-17T02:26:48.354Z,2.20
2023-01-17T02:30:02.693Z,1.83
2023-01-17T02:32:56.556Z,2.10
2023-01-17T02:35:41.029Z,1.90
2023-01-17T02:38:33.061Z,2.17
2023-01-17T02:41:08.223Z,1.70
2023-01-17T02:43:40.327Z,1.40
2023-01-17T02:46:10.384Z,1.63
2023-01-17T02:48:43.627Z,1.53
2023-01-17T02:52:07.553Z,2.17
2023-01-17T02:55:18.784Z,2.70
2023-01-17T02:58:17.381Z,2.17
2023-01-17T03:01:04.929Z,1.17
2023-01-17T03:03:52.330Z,1.70
2023-01-17T03:06:29.396Z,1.80
2023-01-17T03:08:59.504Z,1.70
2023-01-17T03:11:29.977Z,1.50
2023-01-17T03:14:00.829Z,1.47
2023-01-17T03:16:34.969Z,1.80
2023-01-17T03:19:09.844Z,1.40
2023-01-17T03:21:39.864Z,1.67
2023-01-17T03:24:10.412Z,1.40
2023-01-17T03:26:40.434Z,1.80
2023-01-17T03:29:10.352Z,1.47
2023-01-17T03:31:40.347Z,2.30
2023-01-17T03:34:12.892Z,1.40
2023-01-17T03:36:42.968Z,1.80
2023-01-17T03:39:12.978Z,2.30
2023-01-17T03:41:42.972Z,1.70
2023-01-17T03:44:12.919Z,1.57
2023-01-17T03:46:43.164Z,1.60
2023-01-17T03:49:16.778Z,1.90
2023-01-17T03:51:46.801Z,1.37
2023-01-17T03:54:16.836Z,1.30
2023-01-17T03:56:46.847Z,1.40
2023-01-17T03:59:16.842Z,1.70
2023-01-17T04:01:47.017Z,1.60
2023-01-17T04:04:19.801Z,1.80
2023-01-17T04:06:49.921Z,1.30
2023-01-17T04:09:19.919Z,1.77
2023-01-17T04:11:51.027Z,1.60
2023-01-17T04:14:21.381Z,1.93
2023-01-17T04:16:51.599Z,1.20
2023-01-17T04:19:24.528Z,1.60
2023-01-17T04:21:54.530Z,1.43
2023-01-17T04:24:24.678Z,1.77
2023-01-17T04:26:54.645Z,1.50
2023-01-17T04:29:24.689Z,1.80
2023-01-17T04:31:54.863Z,1.20
2023-01-17T04:34:27.765Z,2.37
2023-01-17T04:36:57.742Z,2.50
2023-01-17T04:39:27.759Z,2.23
2023-01-17T04:41:57.732Z,1.80
2023-01-17T04:44:27.818Z,2.47
2023-01-17T04:46:57.785Z,2.43
2023-01-17T04:49:30.399Z,2.40
2023-01-17T04:52:00.433Z,2.90
2023-01-17T04:54:30.448Z,3.53
2023-01-17T04:57:00.433Z,4.10
2023-01-17T04:59:30.563Z,6.43
2023-01-17T05:02:00.684Z,4.20
2023-01-17T05:04:33.409Z,5.13
2023-01-17T05:07:03.439Z,5.63
2023-01-17T05:09:33.523Z,4.80
2023-01-17T05:12:03.674Z,6.53
2023-01-17T05:14:34.452Z,3.03
2023-01-17T05:17:05.009Z,2.70
2023-01-17T05:19:37.788Z,3.10
2023-01-17T05:22:15.176Z,2.93
2023-01-17T05:24:46.316Z,4.33
2023-01-17T05:27:17.814Z,4.27
2023-01-17T05:29:47.851Z,3.03
2023-01-17T05:32:18.521Z,3.27
2023-01-17T05:34:51.115Z,3.67
2023-01-17T05:37:21.067Z,2.67
2023-01-17T05:39:51.040Z,3.47
2023-01-17T05:42:21.057Z,3.37
2023-01-17T05:44:51.041Z,4.40
2023-01-17T05:47:21.043Z,4.60
2023-01-17T05:49:53.599Z,4.47
2023-01-17T05:52:23.579Z,3.30
2023-01-17T05:54:53.573Z,3.40
2023-01-17T05:57:23.554Z,4.40
2023-01-17T05:59:53.654Z,8.87
2023-01-17T06:02:23.636Z,8.07
2023-01-17T06:04:56.221Z,6.53
2023-01-17T06:07:26.323Z,4.20
2023-01-17T06:09:56.327Z,3.80
2023-01-17T06:12:26.430Z,6.43
2023-01-17T06:14:56.601Z,6.87
2023-01-17T06:17:26.805Z,3.90
2023-01-17T06:19:59.357Z,4.80
2023-01-17T06:22:29.354Z,5.20
2023-01-17T06:24:59.395Z,5.43
2023-01-17T06:27:30.070Z,10.47
2023-01-17T06:30:00.108Z,6.27
2023-01-17T06:32:30.130Z,5.63
2023-01-17T06:35:02.807Z,8.33
2023-01-17T06:37:32.857Z,11.27
2023-01-17T06:40:02.993Z,12.53
2023-01-17T06:42:33.859Z,32.50
2023-01-17T06:45:03.827Z,15.03
2023-01-17T06:47:33.819Z,12.93
2023-01-17T06:50:07.073Z,11.80
2023-01-17T06:52:37.302Z,15.33
2023-01-17T06:55:09.108Z,13.00
2023-01-17T06:57:39.347Z,10.50
2023-01-17T07:00:12.002Z,6.73
2023-01-17T07:02:42.050Z,4.97
2023-01-17T07:05:16.408Z,4.90
2023-01-17T07:07:47.587Z,6.07
2023-01-17T07:10:18.923Z,6.77
2023-01-17T07:12:49.227Z,6.40
2023-01-17T07:15:19.414Z,13.90
2023-01-17T07:17:49.427Z,12.40
2023-01-17T07:20:22.347Z,8.80
2023-01-17T07:22:52.313Z,5.63
2023-01-17T07:25:22.974Z,6.97
2023-01-17T07:27:57.777Z,5.47
2023-01-17T07:30:28.197Z,6.40
2023-01-17T07:32:59.101Z,5.00
2023-01-17T07:35:31.677Z,5.07
2023-01-17T07:38:01.655Z,5.60
2023-01-17T07:40:34.934Z,5.17
2023-01-17T07:43:13.660Z,4.40
2023-01-17T07:45:45.933Z,4.70
2023-01-17T07:48:16.148Z,3.27
2023-01-17T07:50:54.306Z,4.80
2023-01-17T07:53:25.791Z,4.20
2023-01-17T07:55:56.129Z,4.30
2023-01-17T07:58:26.248Z,4.80
2023-01-17T08:00:56.265Z,4.50
2023-01-17T08:03:26.546Z,5.60
2023-01-17T08:05:59.477Z,5.20
2023-01-17T08:08:31.025Z,5.00
2023-01-17T08:11:01.161Z,4.63
2023-01-17T08:13:31.123Z,4.63
2023-01-17T08:16:02.555Z,5.97
2023-01-17T08:18:33.186Z,6.03
2023-01-17T08:21:07.477Z,6.70
2023-01-17T08:23:37.496Z,5.27
2023-01-17T08:26:08.019Z,6.10
2023-01-17T08:28:38.056Z,5.50
2023-01-17T08:31:12.445Z,4.97
2023-01-17T08:33:42.439Z,5.70
2023-01-17T08:36:15.074Z,6.00
2023-01-17T08:38:45.043Z,6.77
2023-01-17T08:41:15.673Z,15.73
2023-01-17T08:43:45.647Z,9.50
2023-01-17T08:46:15.645Z,4.93
2023-01-17T08:48:45.887Z,7.27
2023-01-17T08:51:18.538Z,4.90
2023-01-17T08:53:48.646Z,4.30
2023-01-17T08:56:18.829Z,4.70
2023-01-17T08:58:48.891Z,4.93
2023-01-17T09:01:19.475Z,5.13
2023-01-17T09:03:52.076Z,3.70
2023-01-17T09:06:24.717Z,4.70
2023-01-17T09:08:55.450Z,4.63
2023-01-17T09:11:25.403Z,4.20
2023-01-17T09:13:55.440Z,3.97
2023-01-17T09:16:25.513Z,4.73
2023-01-17T09:18:57.365Z,4.43
2023-01-17T09:21:30.122Z,3.60
2023-01-17T09:24:00.107Z,4.70
2023-01-17T09:26:32.589Z,3.70
2023-01-17T09:29:02.607Z,4.33
2023-01-17T09:31:32.800Z,4.00
2023-01-17T09:34:02.888Z,5.83
2023-01-17T09:36:35.593Z,4.60
2023-01-17T09:39:08.195Z,4.60
2023-01-17T09:41:49.880Z,4.03
2023-01-17T09:44:30.722Z,4.80
2023-01-17T09:47:07.513Z,3.93
2023-01-17T09:49:45.032Z,4.20
2023-01-17T09:52:23.385Z,3.70
2023-01-17T09:54:54.731Z,3.83
2023-01-17T09:57:49.058Z,3.00
2023-01-17T10:00:38.171Z,3.03
2023-01-17T10:03:40.188Z,3.70
2023-01-17T10:06:33.724Z,3.77
2023-01-17T10:09:42.858Z,2.73
2023-01-17T10:12:28.274Z,2.70
2023-01-17T10:15:42.873Z,3.23
2023-01-17T10:19:01.234Z,2.67
2023-01-17T10:21:50.141Z,2.27
2023-01-17T10:24:52.068Z,2.10
2023-01-17T10:27:28.634Z,2.37
2023-01-17T10:29:58.723Z,1.77
2023-01-17T10:32:35.902Z,2.20
2023-01-17T10:35:20.544Z,2.03
2023-01-17T10:37:56.793Z,1.53
2023-01-17T10:40:44.637Z,1.93
2023-01-17T10:43:25.272Z,1.60
2023-01-17T10:45:58.745Z,1.80
2023-01-17T10:48:42.828Z,1.67
2023-01-17T10:51:31.543Z,1.13
2023-01-17T10:54:20.255Z,1.17
2023-01-17T10:56:53.849Z,1.40
2023-01-17T10:59:32.713Z,1.80
2023-01-17T11:02:07.456Z,1.30
2023-01-17T11:04:42.982Z,1.10
2023-01-17T11:07:17.369Z,1.40
2023-01-17T11:09:49.701Z,1.63
2023-01-17T11:12:31.906Z,1.03
2023-01-17T11:15:09.012Z,1.30
2023-01-17T11:17:44.160Z,1.30
2023-01-17T11:20:24.503Z,1.40
2023-01-17T11:23:10.883Z,1.87
2023-01-17T11:25:41.703Z,1.30
2023-01-17T11:28:30.564Z,1.40
2023-01-17T11:31:04.347Z,1.10
2023-01-17T11:33:45.458Z,1.63
2023-01-17T11:36:25.565Z,1.00
2023-01-17T11:39:03.006Z,1.20
2023-01-17T11:41:38.909Z,1.20
2023-01-17T11:44:29.562Z,1.07
2023-01-17T11:47:19.609Z,1.13
2023-01-17T11:49:51.778Z,1.10
2023-01-17T11:52:27.332Z,2.07
2023-01-17T11:54:58.536Z,1.10
2023-01-17T11:57:32.002Z,1.50
2023-01-17T12:00:20.883Z,1.40
2023-01-17T12:03:30.065Z,1.27
2023-01-17T12:06:10.708Z,1.30
2023-01-17T12:08:59.241Z,1.30
2023-01-17T12:12:04.493Z,2.50
2023-01-17T12:14:45.815Z,1.40
2023-01-17T12:17:38.818Z,1.20
2023-01-17T12:20:24.182Z,1.27
2023-01-17T12:23:25.907Z,1.40
2023-01-17T12:26:19.540Z,1.20
2023-01-17T12:29:31.683Z,1.10
2023-01-17T12:32:25.897Z,1.47
2023-01-17T12:35:05.107Z,1.73
2023-01-17T12:37:41.636Z,1.30
2023-01-17T12:40:26.204Z,1.73
2023-01-17T12:43:06.252Z,1.03
2023-01-17T12:45:44.474Z,1.13
2023-01-17T12:48:21.766Z,1.40
2023-01-17T12:51:01.023Z,0.90
2023-01-17T12:53:42.867Z,1.40
2023-01-17T12:56:22.691Z,1.40
2023-01-17T12:59:01.663Z,1.10
2023-01-17T13:01:39.840Z,1.30
2023-01-17T13:04:25.544Z,1.13
2023-01-17T13:07:11.629Z,0.93
2023-01-17T13:09:48.950Z,1.67
2023-01-17T13:12:23.624Z,1.27
2023-01-17T13:14:53.977Z,1.87
2023-01-17T13:17:37.764Z,1.17
2023-01-17T13:20:22.692Z,1.13
2023-01-17T13:22:54.648Z,1.37
2023-01-17T13:25:44.084Z,1.40
2023-01-17T13:28:32.325Z,1.67
2023-01-17T13:31:44.683Z,1.57
2023-01-17T13:34:41.169Z,2.00
2023-01-17T13:37:47.636Z,1.83
2023-01-17T13:40:34.429Z,2.07
2023-01-17T13:43:07.539Z,2.40
2023-01-17T13:45:40.496Z,1.60
2023-01-17T13:48:34.821Z,1.50
2023-01-17T13:51:06.138Z,1.70
2023-01-17T13:54:05.218Z,1.50
2023-01-17T13:56:39.135Z,1.40
2023-01-17T13:59:31.352Z,1.90
2023-01-17T14:02:01.400Z,1.77
2023-01-17T14:05:15.257Z,1.40
2023-01-17T14:07:51.399Z,1.40
2023-01-17T14:10:37.847Z,1.87
2023-01-17T14:13:31.428Z,1.53
2023-01-17T14:16:01.702Z,2.07
2023-01-17T14:18:40.563Z,1.73
2023-01-17T14:21:21.794Z,2.30
2023-01-17T14:24:07.543Z,1.63
2023-01-17T14:27:00.383Z,2.10
2023-01-17T14:29:56.928Z,2.27
2023-01-17T14:32:32.254Z,2.47
2023-01-17T14:35:02.538Z,1.53
2023-01-17T14:37:51.975Z,1.90
2023-01-17T14:40:26.526Z,2.40
2023-01-17T14:43:05.707Z,2.30
2023-01-17T14:45:38.459Z,1.70
2023-01-17T14:48:19.002Z,2.60
2023-01-17T14:50:51.294Z,1.47
2023-01-17T14:53:26.052Z,2.13
2023-01-17T14:56:00.411Z,1.93
2023-01-17T14:58:36.457Z,2.67
2023-01-17T15:01:14.200Z,1.90
2023-01-17T15:03:50.588Z,2.23
2023-01-17T15:06:25.165Z,2.13
2023-01-17T15:08:56.142Z,2.00
2023-01-17T15:11:30.341Z,1.93
2023-01-17T15:14:08.816Z,2.20
2023-01-17T15:16:41.169Z,2.67
2023-01-17T15:19:16.523Z,1.93
2023-01-17T15:21:50.756Z,2.40
2023-01-17T15:24:25.177Z,2.33
2023-01-17T15:26:55.424Z,2.73
2023-01-17T15:29:33.748Z,2.70
2023-01-17T15:32:07.386Z,2.07
2023-01-17T15:34:42.333Z,2.90
2023-01-17T15:37:31.283Z,3.10
2023-01-17T15:40:09.895Z,3.13
2023-01-17T15:42:46.253Z,3.37
2023-01-17T15:45:25.424Z,4.63
2023-01-17T15:47:55.424Z,3.07
2023-01-17T15:50:36.569Z,3.60
2023-01-17T15:53:29.686Z,3.53
2023-01-17T15:56:00.326Z,3.17
2023-01-17T15:58:33.007Z,2.87
2023-01-17T16:01:05.832Z,4.40
2023-01-17T16:03:37.696Z,4.43
2023-01-17T16:06:32.533Z,3.67
2023-01-17T16:09:04.719Z,7.87
2023-01-17T16:11:34.745Z,13.30
2023-01-17T16:14:07.614Z,3.93
2023-01-17T16:16:40.275Z,6.07
2023-01-17T16:19:11.858Z,6.53
2023-01-17T16:21:45.090Z,4.47
2023-01-17T16:24:15.135Z,4.30
2023-01-17T16:26:45.143Z,3.43
2023-01-17T16:29:15.149Z,3.90
2023-01-17T16:31:47.780Z,3.90
2023-01-17T16:34:18.227Z,4.10
2023-01-17T16:36:48.325Z,3.50
2023-01-17T16:39:18.435Z,5.37
2023-01-17T16:41:48.437Z,5.30
2023-01-17T16:44:18.422Z,6.23
2023-01-17T16:46:51.206Z,4.33
2023-01-17T16:49:21.372Z,3.80
2023-01-17T16:51:51.853Z,6.13
2023-01-17T16:54:21.846Z,3.33
2023-01-17T16:56:52.191Z,3.30
2023-01-17T16:59:22.506Z,4.30
2023-01-17T17:01:55.118Z,5.40
2023-01-17T17:04:25.609Z,3.00
2023-01-17T17:06:55.775Z,5.70
2023-01-17T17:09:25.878Z,3.33
2023-01-17T17:11:56.911Z,3.67
2023-01-17T17:14:26.944Z,3.83
2023-01-17T17:17:02.673Z,4.13
2023-01-17T17:19:33.612Z,3.23
2023-01-17T17:22:06.643Z,3.17
2023-01-17T17:24:36.831Z,4.30
2023-01-17T17:27:06.989Z,3.00
2023-01-17T17:29:37.022Z,3.40
2023-01-17T17:32:11.616Z,3.20
2023-01-17T17:34:41.655Z,3.97
2023-01-17T17:37:12.163Z,3.33
2023-01-17T17:39:42.457Z,3.60
2023-01-17T17:42:12.578Z,4.00
2023-01-17T17:44:42.606Z,3.30
2023-01-17T17:47:16.192Z,4.60
2023-01-17T17:49:46.359Z,3.20
2023-01-17T17:52:16.447Z,3.23
2023-01-17T17:54:46.557Z,3.23
2023-01-17T17:57:16.582Z,3.23
2023-01-17T17:59:46.552Z,3.90
2023-01-17T18:02:19.419Z,5.27
2023-01-17T18:04:49.555Z,2.87
2023-01-17T18:07:19.856Z,5.00
2023-01-17T18:09:49.919Z,2.97
2023-01-17T18:12:20.367Z,3.70
2023-01-17T18:14:50.435Z,3.97
2023-01-17T18:17:23.255Z,3.70
2023-01-17T18:19:53.395Z,3.70
2023-01-17T18:22:24.400Z,3.37
2023-01-17T18:24:54.372Z,3.93
2023-01-17T18:27:24.331Z,4.70
2023-01-17T18:29:54.402Z,3.60
2023-01-17T18:32:27.010Z,4.40
2023-01-17T18:34:57.022Z,4.67
2023-01-17T18:37:27.052Z,5.87
2023-01-17T18:39:57.397Z,5.20
2023-01-17T18:42:28.573Z,5.17
2023-01-17T18:44:58.697Z,5.67
2023-01-17T18:47:32.556Z,5.60
2023-01-17T18:50:02.551Z,4.30
2023-01-17T18:52:33.914Z,4.07
2023-01-17T18:55:03.926Z,5.83
2023-01-17T18:57:33.929Z,5.70
2023-01-17T19:00:04.032Z,4.63
2023-01-17T19:02:36.635Z,5.60
2023-01-17T19:05:08.837Z,5.70
2023-01-17T19:07:38.782Z,4.53
2023-01-17T19:10:10.690Z,5.00
2023-01-17T19:12:40.699Z,6.30
2023-01-17T19:15:12.870Z,6.97
2023-01-17T19:17:45.404Z,7.03
2023-01-17T19:20:17.323Z,5.90
2023-01-17T19:22:47.519Z,6.37
2023-01-17T19:25:18.794Z,6.30
2023-01-17T19:27:48.743Z,5.77
2023-01-17T19:30:19.603Z,5.20
2023-01-17T19:32:53.074Z,7.00
2023-01-17T19:35:23.276Z,7.63
2023-01-17T19:37:55.825Z,8.13
2023-01-17T19:40:27.041Z,7.70
2023-01-17T19:42:58.117Z,7.20
2023-01-17T19:45:28.744Z,6.43
2023-01-17T19:48:01.323Z,6.50
2023-01-17T19:50:31.708Z,8.60
2023-01-17T19:53:01.730Z,6.40
2023-01-17T19:55:31.936Z,8.30
2023-01-17T19:58:01.943Z,8.07
2023-01-17T20:00:45.907Z,7.43
2023-01-17T20:03:19.185Z,7.07
2023-01-17T20:05:59.228Z,7.20
2023-01-17T20:08:29.209Z,6.70
2023-01-17T20:11:04.737Z,9.43
2023-01-17T20:13:35.532Z,6.87
2023-01-17T20:16:08.508Z,6.83
2023-01-17T20:18:41.489Z,8.07
2023-01-17T20:21:15.659Z,7.93
2023-01-17T20:23:47.375Z,7.87
2023-01-17T20:26:19.519Z,6.40
2023-01-17T20:28:52.455Z,5.93
2023-01-17T20:31:25.680Z,5.80
2023-01-17T20:33:59.421Z,7.37
2023-01-17T20:36:33.156Z,7.23
2023-01-17T20:39:06.358Z,6.90
2023-01-17T20:41:39.121Z,7.97
2023-01-17T20:44:13.911Z,8.50
2023-01-17T20:46:44.593Z,7.30
2023-01-17T20:49:20.267Z,9.10
2023-01-17T20:51:50.680Z,8.07
2023-01-17T20:54:23.512Z,9.47
2023-01-17T20:56:53.592Z,8.07
2023-01-17T20:59:25.185Z,8.27
2023-01-17T21:01:55.433Z,7.43
2023-01-17T21:04:29.087Z,8.50
2023-01-17T21:06:59.035Z,7.97
2023-01-17T21:09:29.006Z,8.00
2023-01-17T21:12:01.271Z,7.93
2023-01-17T21:14:31.455Z,9.67
2023-01-17T21:17:01.505Z,9.13
2023-01-17T21:19:34.184Z,9.70
2023-01-17T21:22:05.465Z,8.10
2023-01-17T21:24:35.507Z,9.07
2023-01-17T21:27:05.505Z,9.63
2023-01-17T21:29:36.628Z,8.83
2023-01-17T21:32:08.765Z,9.00
2023-01-17T21:34:41.369Z,8.90
2023-01-17T21:37:11.407Z,7.33
2023-01-17T21:39:41.497Z,9.63
2023-01-17T21:42:11.573Z,8.27
2023-01-17T21:44:41.596Z,9.47
2023-01-17T21:47:11.575Z,9.13
2023-01-17T21:49:44.172Z,8.37
2023-01-17T21:52:23.887Z,10.73
2023-01-17T21:55:06.370Z,10.70
2023-01-17T21:57:48.929Z,10.27
2023-01-17T22:00:20.533Z,11.57
2023-01-17T22:02:51.435Z,11.33
2023-01-17T22:05:24.084Z,11.47
2023-01-17T22:08:08.107Z,11.97
2023-01-17T22:10:44.668Z,9.90
2023-01-17T22:13:16.547Z,11.60
2023-01-17T22:15:47.445Z,12.83
2023-01-17T22:18:17.479Z,11.63
2023-01-17T22:20:50.053Z,10.70
2023-01-17T22:23:20.644Z,11.30
2023-01-17T22:25:50.740Z,11.23
2023-01-17T22:28:20.756Z,10.10
2023-01-17T22:30:50.815Z,12.23
2023-01-17T22:33:20.998Z,10.77
2023-01-17T22:36:00.862Z,11.40
2023-01-17T22:38:31.548Z,13.20
2023-01-17T22:41:08.405Z,14.20
2023-01-17T22:43:41.116Z,12.17
2023-01-17T22:46:15.522Z,12.27
2023-01-17T22:48:46.155Z,11.80
2023-01-17T22:51:21.245Z,12.13
2023-01-17T22:53:54.432Z,12.57
2023-01-17T22:56:27.261Z,12.10
2023-01-17T22:58:57.725Z,14.37
2023-01-17T23:01:30.641Z,11.60
2023-01-17T23:04:03.195Z,10.17
2023-01-17T23:06:38.209Z,12.20
2023-01-17T23:09:11.463Z,13.70
2023-01-17T23:11:49.790Z,11.57
2023-01-17T23:14:22.454Z,11.53
2023-01-17T23:17:07.971Z,10.97
2023-01-17T23:19:41.378Z,13.43
2023-01-17T23:22:19.384Z,11.97
2023-01-17T23:24:53.339Z,13.17
2023-01-17T23:27:39.943Z,12.83
2023-01-17T23:30:13.838Z,11.47
2023-01-17T23:32:48.069Z,13.13
2023-01-17T23:35:19.919Z,11.17
2023-01-17T23:38:05.316Z,12.47
2023-01-17T23:40:37.688Z,11.77
2023-01-17T23:43:20.561Z,13.80
2023-01-17T23:45:50.786Z,12.43
2023-01-17T23:48:23.651Z,10.50
2023-01-17T23:50:54.044Z,13.00
2023-01-17T23:53:27.032Z,11.60
2023-01-17T23:55:59.696Z,12.47
2023-01-17T23:58:31.120Z,11.67
